DAOO Airport Information

Runway Information
Runway 07 Length 10039 ft width 148 ft
Elevation 295 ft Threshold 0 ft Heading 67
Runway 25 Length 10039 ft Width 148 ft
Elevation 295 ft Threshold 196 ft Heading 247
Airport Frequencies
Type APP Name ORAN APP Frequency 128.2 MHZ
Type TWR Name ORAN TWR Frequency 118.1 MHZ
Airport Navaids
Type VOR-DME Name Oran Frequency 114000 KHZ
Airport Weather Information & NOTAM
ADDS - METARS form results

(1919 UTC 25 June 2018)
 
METAR text: DAOO 251900Z 34005KT 9999 FEW016 23/19 Q1014
Conditions at: DAOO (ORAN/ES SENIA , DZ) observed 1900 UTC 25 June 2018
Temperature: 23.0°C (73°F)
Dewpoint: 19.0°C (66°F) [RH = 78%]
Pressure (altimeter): 29.94 inches Hg (1014.0 mb)
Winds: from the NNW (340 degrees) at 6 MPH (5 knots; 2.6 m/s)
Visibility: 6 or more miles (10+ km)
Ceiling: at least 12,000 feet AGL
Clouds: few clouds at 1600 feet AGL
Weather: no significant weather observed at this time

METAR text: DAOO 251830Z 34010KT 9999 FEW016 24/19 Q1015
Conditions at: DAOO (ORAN/ES SENIA , DZ) observed 1830 UTC 25 June 2018
Temperature: 24.0°C (75°F)
Dewpoint: 19.0°C (66°F) [RH = 74%]
Pressure (altimeter): 29.97 inches Hg (1015.0 mb)
Winds: from the NNW (340 degrees) at 12 MPH (10 knots; 5.2 m/s)
Visibility: 6 or more miles (10+ km)
Ceiling: at least 12,000 feet AGL
Clouds: few clouds at 1600 feet AGL
Weather: no significant weather observed at this time